CheckWX is a tool to help pilots better visualize weather data.  It is not intended as a substitute for an official pre-flight weather briefing.

04:34:15 UTC

KCID METAR
The Eastern Iowa Airport
Cedar Rapids, Iowa, USA
Current

42 mins ago

KCID 240352Z 32006KT 10SM CLR 18/16 A3016 RMK AO2 SLP208 T01780156
Observed
Jul-24 @ 03:52 UTC
Wind
  • 320° at 6 KTS
Visibility
10 SM
Flight Rules
VFR
Cloud Levels
  • Clear skies
Temperature
18°C / 64°F
Dewpoint
16°C / 61°F
Humidity
88%
Altimeter
30.16" Hg
Pressure
1021.32 hPa
Previous

2 hours ago

KCID 240252Z 33005KT 10SM CLR 20/16 A3016 RMK AO2 SLP208 T02000161 53008
Observed
Jul-24 @ 02:52 UTC
Wind
  • 330° at 5 KTS
Visibility
10 SM
Flight Rules
VFR
Cloud Levels
  • Clear skies
Temperature
20°C / 68°F
Dewpoint
16°C / 61°F
Humidity
78%
Altimeter
30.16" Hg
Pressure
1021.32 hPa
Previous

3 hours ago

KCID 240152Z 33004KT 10SM CLR 22/16 A3015 RMK AO2 SLP204 T02170161
Observed
Jul-24 @ 01:52 UTC
Wind
  • 330° at 4 KTS
Visibility
10 SM
Flight Rules
VFR
Cloud Levels
  • Clear skies
Temperature
22°C / 72°F
Dewpoint
16°C / 61°F
Humidity
69%
Altimeter
30.15" Hg
Pressure
1021.02 hPa